sensor_id;sensor_type;location;lat;lon;timestamp;temperature;humidity
10986;DHT22;5546;48.714;8.738;2022-12-10T00:01:31;6.10;92.90
10986;DHT22;5546;48.714;8.738;2022-12-10T00:03:57;6.10;93.10
10986;DHT22;5546;48.714;8.738;2022-12-10T00:06:28;5.80;93.10
10986;DHT22;5546;48.714;8.738;2022-12-10T00:08:54;5.50;93.30
10986;DHT22;5546;48.714;8.738;2022-12-10T00:11:21;5.50;93.60
10986;DHT22;5546;48.714;8.738;2022-12-10T00:13:48;5.90;92.90
10986;DHT22;5546;48.714;8.738;2022-12-10T00:16:16;5.90;93.20
10986;DHT22;5546;48.714;8.738;2022-12-10T00:18:42;5.90;93.40
10986;DHT22;5546;48.714;8.738;2022-12-10T00:21:10;6.00;93.30
10986;DHT22;5546;48.714;8.738;2022-12-10T00:23:37;6.10;93.00
10986;DHT22;5546;48.714;8.738;2022-12-10T00:26:09;6.20;93.00
10986;DHT22;5546;48.714;8.738;2022-12-10T00:28:35;6.10;93.00
10986;DHT22;5546;48.714;8.738;2022-12-10T00:31:06;5.90;93.00
10986;DHT22;5546;48.714;8.738;2022-12-10T00:33:32;5.90;93.10
10986;DHT22;5546;48.714;8.738;2022-12-10T00:36:09;5.80;93.30
10986;DHT22;5546;48.714;8.738;2022-12-10T00:38:36;6.00;93.10
10986;DHT22;5546;48.714;8.738;2022-12-10T00:41:02;6.00;93.30
10986;DHT22;5546;48.714;8.738;2022-12-10T00:43:28;5.80;92.90
10986;DHT22;5546;48.714;8.738;2022-12-10T00:45:54;5.80;93.20
10986;DHT22;5546;48.714;8.738;2022-12-10T00:48:20;5.90;93.20
10986;DHT22;5546;48.714;8.738;2022-12-10T00:50:58;5.80;93.30
10986;DHT22;5546;48.714;8.738;2022-12-10T00:53:25;5.80;93.60
10986;DHT22;5546;48.714;8.738;2022-12-10T00:55:51;5.70;93.40
10986;DHT22;5546;48.714;8.738;2022-12-10T00:58:17;5.70;93.50
10986;DHT22;5546;48.714;8.738;2022-12-10T01:00:43;5.90;93.50
10986;DHT22;5546;48.714;8.738;2022-12-10T01:03:08;6.10;93.10
10986;DHT22;5546;48.714;8.738;2022-12-10T01:05:34;6.20;92.70
10986;DHT22;5546;48.714;8.738;2022-12-10T01:07:59;6.10;93.00
10986;DHT22;5546;48.714;8.738;2022-12-10T01:10:25;6.20;92.70
10986;DHT22;5546;48.714;8.738;2022-12-10T01:12:50;6.20;92.90
10986;DHT22;5546;48.714;8.738;2022-12-10T01:15:16;6.00;92.90
10986;DHT22;5546;48.714;8.738;2022-12-10T01:17:41;5.80;93.30
10986;DHT22;5546;48.714;8.738;2022-12-10T01:20:07;5.50;93.70
10986;DHT22;5546;48.714;8.738;2022-12-10T01:22:32;5.80;93.60
10986;DHT22;5546;48.714;8.738;2022-12-10T01:24:58;5.60;93.60
10986;DHT22;5546;48.714;8.738;2022-12-10T01:27:23;5.90;93.30
10986;DHT22;5546;48.714;8.738;2022-12-10T01:32:15;6.00;93.10
10986;DHT22;5546;48.714;8.738;2022-12-10T01:34:40;6.10;93.40
10986;DHT22;5546;48.714;8.738;2022-12-10T01:37:06;6.20;92.60
10986;DHT22;5546;48.714;8.738;2022-12-10T01:39:31;6.20;92.80
10986;DHT22;5546;48.714;8.738;2022-12-10T01:41:59;5.60;92.70
10986;DHT22;5546;48.714;8.738;2022-12-10T01:46:53;5.30;93.40
10986;DHT22;5546;48.714;8.738;2022-12-10T01:49:25;5.20;93.60
10986;DHT22;5546;48.714;8.738;2022-12-10T01:51:54;5.30;94.00
10986;DHT22;5546;48.714;8.738;2022-12-10T01:54:26;5.50;94.30
10986;DHT22;5546;48.714;8.738;2022-12-10T01:57:22;5.30;94.00
10986;DHT22;5546;48.714;8.738;2022-12-10T01:59:54;5.00;93.80
10986;DHT22;5546;48.714;8.738;2022-12-10T02:02:32;5.00;94.10
10986;DHT22;5546;48.714;8.738;2022-12-10T02:05:08;5.10;94.20
10986;DHT22;5546;48.714;8.738;2022-12-10T02:07:52;5.10;94.30
10986;DHT22;5546;48.714;8.738;2022-12-10T02:15:58;5.70;93.30
10986;DHT22;5546;48.714;8.738;2022-12-10T02:18:28;5.60;93.00
10986;DHT22;5546;48.714;8.738;2022-12-10T02:20:59;5.80;92.80
10986;DHT22;5546;48.714;8.738;2022-12-10T02:23:36;5.90;93.00
10986;DHT22;5546;48.714;8.738;2022-12-10T02:26:13;6.00;92.60
10986;DHT22;5546;48.714;8.738;2022-12-10T02:31:10;5.70;92.80
10986;DHT22;5546;48.714;8.738;2022-12-10T02:33:39;6.00;92.50
10986;DHT22;5546;48.714;8.738;2022-12-10T02:36:08;6.00;92.80
10986;DHT22;5546;48.714;8.738;2022-12-10T02:38:36;5.20;93.50
10986;DHT22;5546;48.714;8.738;2022-12-10T02:41:06;5.30;93.90
10986;DHT22;5546;48.714;8.738;2022-12-10T02:43:34;5.40;93.00
10986;DHT22;5546;48.714;8.738;2022-12-10T02:46:02;5.80;92.90
10986;DHT22;5546;48.714;8.738;2022-12-10T02:48:28;5.80;93.10
10986;DHT22;5546;48.714;8.738;2022-12-10T02:50:54;5.60;93.20
10986;DHT22;5546;48.714;8.738;2022-12-10T02:53:20;5.80;93.40
10986;DHT22;5546;48.714;8.738;2022-12-10T02:56:00;6.10;92.90
10986;DHT22;5546;48.714;8.738;2022-12-10T03:01:43;6.10;92.10
10986;DHT22;5546;48.714;8.738;2022-12-10T03:07:14;6.20;91.60
10986;DHT22;5546;48.714;8.738;2022-12-10T03:09:48;6.20;91.90
10986;DHT22;5546;48.714;8.738;2022-12-10T03:12:27;5.80;92.70
10986;DHT22;5546;48.714;8.738;2022-12-10T03:14:58;5.90;92.80
10986;DHT22;5546;48.714;8.738;2022-12-10T03:17:27;6.00;92.60
10986;DHT22;5546;48.714;8.738;2022-12-10T03:19:55;6.20;92.30
10986;DHT22;5546;48.714;8.738;2022-12-10T03:22:22;6.20;92.30
10986;DHT22;5546;48.714;8.738;2022-12-10T03:24:47;5.90;92.70
10986;DHT22;5546;48.714;8.738;2022-12-10T03:27:15;5.60;92.60
10986;DHT22;5546;48.714;8.738;2022-12-10T03:29:47;5.60;92.90
10986;DHT22;5546;48.714;8.738;2022-12-10T03:32:14;5.80;93.20
10986;DHT22;5546;48.714;8.738;2022-12-10T03:34:41;6.00;92.40
10986;DHT22;5546;48.714;8.738;2022-12-10T03:37:07;6.00;92.20
10986;DHT22;5546;48.714;8.738;2022-12-10T03:39:33;6.20;92.00
10986;DHT22;5546;48.714;8.738;2022-12-10T03:41:59;6.20;91.60
10986;DHT22;5546;48.714;8.738;2022-12-10T03:44:35;6.20;91.90
10986;DHT22;5546;48.714;8.738;2022-12-10T03:47:02;5.90;92.30
10986;DHT22;5546;48.714;8.738;2022-12-10T03:49:28;5.90;92.50
10986;DHT22;5546;48.714;8.738;2022-12-10T03:51:53;6.00;92.50
10986;DHT22;5546;48.714;8.738;2022-12-10T03:54:19;6.30;91.70
10986;DHT22;5546;48.714;8.738;2022-12-10T03:56:45;5.90;92.10
10986;DHT22;5546;48.714;8.738;2022-12-10T03:59:10;5.90;92.40
10986;DHT22;5546;48.714;8.738;2022-12-10T04:01:36;6.20;91.90
10986;DHT22;5546;48.714;8.738;2022-12-10T04:04:03;6.20;92.10
10986;DHT22;5546;48.714;8.738;2022-12-10T04:06:28;6.20;92.10
10986;DHT22;5546;48.714;8.738;2022-12-10T04:08:54;6.00;92.00
10986;DHT22;5546;48.714;8.738;2022-12-10T04:11:19;6.00;92.30
10986;DHT22;5546;48.714;8.738;2022-12-10T04:13:45;6.10;92.40
10986;DHT22;5546;48.714;8.738;2022-12-10T04:16:31;6.00;92.10
10986;DHT22;5546;48.714;8.738;2022-12-10T04:19:08;6.00;92.40
10986;DHT22;5546;48.714;8.738;2022-12-10T04:21:35;6.00;91.90
10986;DHT22;5546;48.714;8.738;2022-12-10T04:24:22;5.90;92.20
10986;DHT22;5546;48.714;8.738;2022-12-10T04:27:23;6.00;92.20
10986;DHT22;5546;48.714;8.738;2022-12-10T04:29:50;5.90;92.40
10986;DHT22;5546;48.714;8.738;2022-12-10T04:32:17;5.80;92.60
10986;DHT22;5546;48.714;8.738;2022-12-10T04:34:42;5.80;92.90
10986;DHT22;5546;48.714;8.738;2022-12-10T04:37:08;5.70;92.80
10986;DHT22;5546;48.714;8.738;2022-12-10T04:39:36;5.70;93.00
10986;DHT22;5546;48.714;8.738;2022-12-10T04:42:02;5.30;93.50
10986;DHT22;5546;48.714;8.738;2022-12-10T04:44:27;5.30;93.80
10986;DHT22;5546;48.714;8.738;2022-12-10T04:46:53;5.60;92.80
10986;DHT22;5546;48.714;8.738;2022-12-10T04:49:19;5.60;93.10
10986;DHT22;5546;48.714;8.738;2022-12-10T04:51:44;5.60;92.80
10986;DHT22;5546;48.714;8.738;2022-12-10T04:54:10;5.50;92.90
10986;DHT22;5546;48.714;8.738;2022-12-10T04:56:36;5.80;93.30
10986;DHT22;5546;48.714;8.738;2022-12-10T04:59:03;5.40;93.00
10986;DHT22;5546;48.714;8.738;2022-12-10T05:01:29;5.50;93.40
10986;DHT22;5546;48.714;8.738;2022-12-10T05:03:57;5.60;92.90
10986;DHT22;5546;48.714;8.738;2022-12-10T05:06:23;5.60;93.20
10986;DHT22;5546;48.714;8.738;2022-12-10T05:08:48;5.80;93.00
10986;DHT22;5546;48.714;8.738;2022-12-10T05:11:16;5.80;92.90
10986;DHT22;5546;48.714;8.738;2022-12-10T05:13:42;5.90;92.40
10986;DHT22;5546;48.714;8.738;2022-12-10T05:16:10;5.90;92.70
10986;DHT22;5546;48.714;8.738;2022-12-10T05:18:37;6.00;92.70
10986;DHT22;5546;48.714;8.738;2022-12-10T05:21:05;6.10;92.50
10986;DHT22;5546;48.714;8.738;2022-12-10T05:23:31;5.70;92.60
10986;DHT22;5546;48.714;8.738;2022-12-10T05:26:12;5.40;93.10
10986;DHT22;5546;48.714;8.738;2022-12-10T05:28:55;5.40;93.30
10986;DHT22;5546;48.714;8.738;2022-12-10T05:31:29;5.40;93.20
10986;DHT22;5546;48.714;8.738;2022-12-10T05:33:56;5.60;93.10
10986;DHT22;5546;48.714;8.738;2022-12-10T05:36:24;5.20;93.70
10986;DHT22;5546;48.714;8.738;2022-12-10T05:38:51;5.10;93.40
10986;DHT22;5546;48.714;8.738;2022-12-10T05:41:20;5.00;93.70
10986;DHT22;5546;48.714;8.738;2022-12-10T05:43:46;5.20;93.60
10986;DHT22;5546;48.714;8.738;2022-12-10T05:46:14;4.80;94.10
10986;DHT22;5546;48.714;8.738;2022-12-10T05:48:40;4.60;94.70
10986;DHT22;5546;48.714;8.738;2022-12-10T05:51:11;4.70;94.50
10986;DHT22;5546;48.714;8.738;2022-12-10T05:53:37;4.70;94.80
10986;DHT22;5546;48.714;8.738;2022-12-10T05:56:08;5.20;94.20
10986;DHT22;5546;48.714;8.738;2022-12-10T05:58:35;5.70;92.90
10986;DHT22;5546;48.714;8.738;2022-12-10T06:01:16;5.70;92.60
10986;DHT22;5546;48.714;8.738;2022-12-10T06:03:42;5.70;93.00
10986;DHT22;5546;48.714;8.738;2022-12-10T06:06:08;5.00;93.20
10986;DHT22;5546;48.714;8.738;2022-12-10T06:08:35;4.90;94.10
10986;DHT22;5546;48.714;8.738;2022-12-10T06:11:02;5.00;93.70
10986;DHT22;5546;48.714;8.738;2022-12-10T06:13:28;5.00;94.00
10986;DHT22;5546;48.714;8.738;2022-12-10T06:15:53;5.20;93.60
10986;DHT22;5546;48.714;8.738;2022-12-10T06:18:19;4.70;94.60
10986;DHT22;5546;48.714;8.738;2022-12-10T06:20:44;4.90;94.10
10986;DHT22;5546;48.714;8.738;2022-12-10T06:23:10;4.70;94.10
10986;DHT22;5546;48.714;8.738;2022-12-10T06:25:38;4.50;94.40
10986;DHT22;5546;48.714;8.738;2022-12-10T06:28:04;4.40;94.60
10986;DHT22;5546;48.714;8.738;2022-12-10T06:30:30;5.30;94.30
10986;DHT22;5546;48.714;8.738;2022-12-10T06:32:55;5.10;93.50
10986;DHT22;5546;48.714;8.738;2022-12-10T06:35:21;5.20;93.60
10986;DHT22;5546;48.714;8.738;2022-12-10T06:37:46;5.10;93.00
10986;DHT22;5546;48.714;8.738;2022-12-10T06:40:12;4.80;93.30
10986;DHT22;5546;48.714;8.738;2022-12-10T06:42:37;4.70;93.50
10986;DHT22;5546;48.714;8.738;2022-12-10T06:45:03;4.50;94.10
10986;DHT22;5546;48.714;8.738;2022-12-10T06:47:29;4.60;94.10
10986;DHT22;5546;48.714;8.738;2022-12-10T06:49:55;5.10;93.60
10986;DHT22;5546;48.714;8.738;2022-12-10T06:52:21;5.00;93.60
10986;DHT22;5546;48.714;8.738;2022-12-10T06:54:46;5.00;92.90
10986;DHT22;5546;48.714;8.738;2022-12-10T06:57:12;4.50;93.70
10986;DHT22;5546;48.714;8.738;2022-12-10T06:59:38;4.80;94.10
10986;DHT22;5546;48.714;8.738;2022-12-10T07:02:03;4.90;93.60
10986;DHT22;5546;48.714;8.738;2022-12-10T07:04:29;5.00;93.00
10986;DHT22;5546;48.714;8.738;2022-12-10T07:06:54;4.90;93.50
10986;DHT22;5546;48.714;8.738;2022-12-10T07:09:20;4.80;93.40
10986;DHT22;5546;48.714;8.738;2022-12-10T07:11:45;4.90;93.50
10986;DHT22;5546;48.714;8.738;2022-12-10T07:14:15;4.90;93.80
10986;DHT22;5546;48.714;8.738;2022-12-10T07:16:41;5.30;93.00
10986;DHT22;5546;48.714;8.738;2022-12-10T07:19:09;5.30;92.80
10986;DHT22;5546;48.714;8.738;2022-12-10T07:21:36;5.00;93.30
10986;DHT22;5546;48.714;8.738;2022-12-10T07:24:19;4.50;93.50
10986;DHT22;5546;48.714;8.738;2022-12-10T07:26:46;4.90;93.20
10986;DHT22;5546;48.714;8.738;2022-12-10T07:29:14;4.90;93.50
10986;DHT22;5546;48.714;8.738;2022-12-10T07:31:40;5.30;93.30
10986;DHT22;5546;48.714;8.738;2022-12-10T07:34:06;4.20;94.20
10986;DHT22;5546;48.714;8.738;2022-12-10T07:36:32;4.20;94.40
10986;DHT22;5546;48.714;8.738;2022-12-10T07:38:57;4.60;93.70
10986;DHT22;5546;48.714;8.738;2022-12-10T07:41:24;4.50;93.90
10986;DHT22;5546;48.714;8.738;2022-12-10T07:43:51;4.60;93.80
10986;DHT22;5546;48.714;8.738;2022-12-10T07:46:22;4.40;94.20
10986;DHT22;5546;48.714;8.738;2022-12-10T07:48:48;4.50;93.80
10986;DHT22;5546;48.714;8.738;2022-12-10T07:51:15;4.50;94.10
10986;DHT22;5546;48.714;8.738;2022-12-10T07:53:42;5.20;93.80
10986;DHT22;5546;48.714;8.738;2022-12-10T07:56:08;5.40;92.90
10986;DHT22;5546;48.714;8.738;2022-12-10T07:58:34;5.60;92.20
10986;DHT22;5546;48.714;8.738;2022-12-10T08:01:09;5.60;92.10
10986;DHT22;5546;48.714;8.738;2022-12-10T08:03:35;5.50;92.30
10986;DHT22;5546;48.714;8.738;2022-12-10T08:06:21;5.30;92.30
10986;DHT22;5546;48.714;8.738;2022-12-10T08:08:47;5.10;92.70
10986;DHT22;5546;48.714;8.738;2022-12-10T08:11:14;5.20;92.40
10986;DHT22;5546;48.714;8.738;2022-12-10T08:13:40;5.10;92.60
10986;DHT22;5546;48.714;8.738;2022-12-10T08:16:09;4.90;92.90
10986;DHT22;5546;48.714;8.738;2022-12-10T08:18:35;4.90;93.20
10986;DHT22;5546;48.714;8.738;2022-12-10T08:21:21;5.30;93.20
10986;DHT22;5546;48.714;8.738;2022-12-10T08:23:48;4.90;93.10
10986;DHT22;5546;48.714;8.738;2022-12-10T08:26:17;4.60;93.50
10986;DHT22;5546;48.714;8.738;2022-12-10T08:28:44;4.50;93.50
10986;DHT22;5546;48.714;8.738;2022-12-10T08:31:12;4.60;93.80
10986;DHT22;5546;48.714;8.738;2022-12-10T08:33:38;5.00;93.00
10986;DHT22;5546;48.714;8.738;2022-12-10T08:36:05;5.00;92.80
10986;DHT22;5546;48.714;8.738;2022-12-10T08:38:31;5.20;92.30
10986;DHT22;5546;48.714;8.738;2022-12-10T08:40:57;5.30;92.40
10986;DHT22;5546;48.714;8.738;2022-12-10T08:43:23;5.40;91.90
10986;DHT22;5546;48.714;8.738;2022-12-10T08:45:49;5.60;91.90
10986;DHT22;5546;48.714;8.738;2022-12-10T08:48:14;5.60;92.10
10986;DHT22;5546;48.714;8.738;2022-12-10T08:50:40;5.80;91.40
10986;DHT22;5546;48.714;8.738;2022-12-10T08:53:05;5.80;91.70
10986;DHT22;5546;48.714;8.738;2022-12-10T08:55:31;5.90;91.30
10986;DHT22;5546;48.714;8.738;2022-12-10T08:57:57;5.60;91.30
10986;DHT22;5546;48.714;8.738;2022-12-10T09:00:24;5.70;91.30
10986;DHT22;5546;48.714;8.738;2022-12-10T09:02:49;5.90;91.20
10986;DHT22;5546;48.714;8.738;2022-12-10T09:05:15;6.10;90.90
10986;DHT22;5546;48.714;8.738;2022-12-10T09:07:40;6.10;91.10
10986;DHT22;5546;48.714;8.738;2022-12-10T09:10:07;6.30;90.70
10986;DHT22;5546;48.714;8.738;2022-12-10T09:12:34;5.30;91.10
10986;DHT22;5546;48.714;8.738;2022-12-10T09:14:59;5.00;92.50
10986;DHT22;5546;48.714;8.738;2022-12-10T09:17:25;5.00;92.30
10986;DHT22;5546;48.714;8.738;2022-12-10T09:19:51;5.00;92.60
10986;DHT22;5546;48.714;8.738;2022-12-10T09:22:16;5.50;91.40
10986;DHT22;5546;48.714;8.738;2022-12-10T09:24:42;5.00;92.00
10986;DHT22;5546;48.714;8.738;2022-12-10T09:27:07;5.10;91.50
10986;DHT22;5546;48.714;8.738;2022-12-10T09:29:33;4.70;92.20
10986;DHT22;5546;48.714;8.738;2022-12-10T09:31:58;4.60;92.50
10986;DHT22;5546;48.714;8.738;2022-12-10T09:34:24;5.20;92.20
10986;DHT22;5546;48.714;8.738;2022-12-10T09:36:49;4.80;92.10
10986;DHT22;5546;48.714;8.738;2022-12-10T09:39:15;5.00;92.20
10986;DHT22;5546;48.714;8.738;2022-12-10T09:42:03;5.00;92.30
10986;DHT22;5546;48.714;8.738;2022-12-10T09:46:58;5.00;91.80
10986;DHT22;5546;48.714;8.738;2022-12-10T09:49:52;4.80;91.70
10986;DHT22;5546;48.714;8.738;2022-12-10T09:52:25;4.90;92.20
10986;DHT22;5546;48.714;8.738;2022-12-10T09:55:00;4.90;92.80
10986;DHT22;5546;48.714;8.738;2022-12-10T09:57:30;4.90;91.50
10986;DHT22;5546;48.714;8.738;2022-12-10T10:00:04;5.00;91.60
10986;DHT22;5546;48.714;8.738;2022-12-10T10:02:32;5.00;91.80
10986;DHT22;5546;48.714;8.738;2022-12-10T10:07:34;5.70;90.60
10986;DHT22;5546;48.714;8.738;2022-12-10T10:10:05;5.70;90.90
10986;DHT22;5546;48.714;8.738;2022-12-10T10:12:33;6.20;89.90
10986;DHT22;5546;48.714;8.738;2022-12-10T10:15:13;6.20;90.20
10986;DHT22;5546;48.714;8.738;2022-12-10T10:17:39;5.60;91.00
10986;DHT22;5546;48.714;8.738;2022-12-10T10:20:11;5.60;91.30
10986;DHT22;5546;48.714;8.738;2022-12-10T10:22:38;5.90;90.20
10986;DHT22;5546;48.714;8.738;2022-12-10T10:25:05;5.60;90.30
10986;DHT22;5546;48.714;8.738;2022-12-10T10:27:31;5.80;90.30
10986;DHT22;5546;48.714;8.738;2022-12-10T10:30:01;4.90;90.80
10986;DHT22;5546;48.714;8.738;2022-12-10T10:35:00;5.70;90.70
10986;DHT22;5546;48.714;8.738;2022-12-10T10:37:29;5.60;90.90
10986;DHT22;5546;48.714;8.738;2022-12-10T10:39:57;5.90;90.20
10986;DHT22;5546;48.714;8.738;2022-12-10T10:42:28;5.40;90.20
10986;DHT22;5546;48.714;8.738;2022-12-10T10:44:58;5.40;90.60
10986;DHT22;5546;48.714;8.738;2022-12-10T10:47:34;5.20;90.80
10986;DHT22;5546;48.714;8.738;2022-12-10T10:50:04;5.20;90.90
10986;DHT22;5546;48.714;8.738;2022-12-10T10:52:35;5.40;91.10
10986;DHT22;5546;48.714;8.738;2022-12-10T10:55:01;5.50;90.00
10986;DHT22;5546;48.714;8.738;2022-12-10T10:57:33;5.30;90.20
10986;DHT22;5546;48.714;8.738;2022-12-10T11:00:22;5.10;90.50
10986;DHT22;5546;48.714;8.738;2022-12-10T11:02:48;5.20;90.90
10986;DHT22;5546;48.714;8.738;2022-12-10T11:05:21;5.40;90.60
10986;DHT22;5546;48.714;8.738;2022-12-10T11:08:05;5.70;90.60
10986;DHT22;5546;48.714;8.738;2022-12-10T11:10:33;6.20;90.00
10986;DHT22;5546;48.714;8.738;2022-12-10T11:13:04;6.30;88.70
10986;DHT22;5546;48.714;8.738;2022-12-10T11:15:35;6.40;87.80
10986;DHT22;5546;48.714;8.738;2022-12-10T11:18:02;6.40;88.40
10986;DHT22;5546;48.714;8.738;2022-12-10T11:20:34;6.40;89.70
10986;DHT22;5546;48.714;8.738;2022-12-10T11:23:10;6.60;86.20
10986;DHT22;5546;48.714;8.738;2022-12-10T11:33:45;7.20;84.30
10986;DHT22;5546;48.714;8.738;2022-12-10T11:37:05;7.20;85.00
10986;DHT22;5546;48.714;8.738;2022-12-10T11:44:54;7.20;84.90
10986;DHT22;5546;48.714;8.738;2022-12-10T11:47:37;6.80;83.50
10986;DHT22;5546;48.714;8.738;2022-12-10T12:01:49;7.00;83.90
10986;DHT22;5546;48.714;8.738;2022-12-10T12:07:25;7.20;83.90
10986;DHT22;5546;48.714;8.738;2022-12-10T12:10:15;6.80;84.40
10986;DHT22;5546;48.714;8.738;2022-12-10T12:13:15;6.50;85.60
10986;DHT22;5546;48.714;8.738;2022-12-10T12:15:53;7.00;83.80
10986;DHT22;5546;48.714;8.738;2022-12-10T12:21:11;7.40;83.50
10986;DHT22;5546;48.714;8.738;2022-12-10T12:24:03;7.10;83.10
10986;DHT22;5546;48.714;8.738;2022-12-10T12:26:36;7.10;83.60
10986;DHT22;5546;48.714;8.738;2022-12-10T12:29:26;6.30;85.40
10986;DHT22;5546;48.714;8.738;2022-12-10T12:32:27;7.00;84.40
10986;DHT22;5546;48.714;8.738;2022-12-10T12:37:30;7.20;82.40
10986;DHT22;5546;48.714;8.738;2022-12-10T12:40:25;7.10;82.90
10986;DHT22;5546;48.714;8.738;2022-12-10T12:42:58;7.20;83.50
10986;DHT22;5546;48.714;8.738;2022-12-10T12:45:32;7.00;82.50
10986;DHT22;5546;48.714;8.738;2022-12-10T12:48:16;7.00;83.10
10986;DHT22;5546;48.714;8.738;2022-12-10T12:59:22;6.80;83.60
10986;DHT22;5546;48.714;8.738;2022-12-10T13:01:56;6.80;84.10
10986;DHT22;5546;48.714;8.738;2022-12-10T13:04:24;6.50;83.50
10986;DHT22;5546;48.714;8.738;2022-12-10T13:07:09;6.50;84.30
10986;DHT22;5546;48.714;8.738;2022-12-10T13:09:43;6.40;84.70
10986;DHT22;5546;48.714;8.738;2022-12-10T13:17:28;6.00;86.40
10986;DHT22;5546;48.714;8.738;2022-12-10T13:23:04;5.60;87.50
10986;DHT22;5546;48.714;8.738;2022-12-10T13:36:36;5.90;87.40
10986;DHT22;5546;48.714;8.738;2022-12-10T13:47:49;6.40;84.80
10986;DHT22;5546;48.714;8.738;2022-12-10T13:50:38;6.40;84.90
10986;DHT22;5546;48.714;8.738;2022-12-10T13:55:59;5.70;87.00
10986;DHT22;5546;48.714;8.738;2022-12-10T13:58:55;6.00;85.00
10986;DHT22;5546;48.714;8.738;2022-12-10T14:07:09;5.80;86.40
10986;DHT22;5546;48.714;8.738;2022-12-10T14:09:48;5.90;86.50
10986;DHT22;5546;48.714;8.738;2022-12-10T14:12:17;5.90;87.00
10986;DHT22;5546;48.714;8.738;2022-12-10T14:14:52;6.00;85.60
10986;DHT22;5546;48.714;8.738;2022-12-10T14:17:24;5.80;86.30
10986;DHT22;5546;48.714;8.738;2022-12-10T14:19:55;5.80;87.10
10986;DHT22;5546;48.714;8.738;2022-12-10T14:22:39;5.70;87.60
10986;DHT22;5546;48.714;8.738;2022-12-10T14:25:19;6.00;87.10
10986;DHT22;5546;48.714;8.738;2022-12-10T14:27:50;6.10;87.00
10986;DHT22;5546;48.714;8.738;2022-12-10T14:30:18;5.60;87.50
10986;DHT22;5546;48.714;8.738;2022-12-10T14:32:44;5.40;88.20
10986;DHT22;5546;48.714;8.738;2022-12-10T14:35:25;5.40;89.30
10986;DHT22;5546;48.714;8.738;2022-12-10T14:37:56;5.60;88.50
10986;DHT22;5546;48.714;8.738;2022-12-10T14:40:29;5.70;89.00
10986;DHT22;5546;48.714;8.738;2022-12-10T14:43:05;6.10;87.20
10986;DHT22;5546;48.714;8.738;2022-12-10T14:45:41;6.00;87.60
10986;DHT22;5546;48.714;8.738;2022-12-10T14:48:12;5.40;89.00
10986;DHT22;5546;48.714;8.738;2022-12-10T14:50:39;5.50;89.20
10986;DHT22;5546;48.714;8.738;2022-12-10T14:53:13;5.40;89.80
10986;DHT22;5546;48.714;8.738;2022-12-10T14:55:39;5.60;89.00
10986;DHT22;5546;48.714;8.738;2022-12-10T14:58:06;5.60;89.60
10986;DHT22;5546;48.714;8.738;2022-12-10T15:00:35;4.90;88.60
10986;DHT22;5546;48.714;8.738;2022-12-10T15:03:10;5.00;89.90
10986;DHT22;5546;48.714;8.738;2022-12-10T15:05:37;5.00;90.10
10986;DHT22;5546;48.714;8.738;2022-12-10T15:08:06;5.50;88.80
10986;DHT22;5546;48.714;8.738;2022-12-10T15:10:32;5.30;88.00
10986;DHT22;5546;48.714;8.738;2022-12-10T15:12:59;5.60;88.70
10986;DHT22;5546;48.714;8.738;2022-12-10T15:15:35;5.10;89.40
10986;DHT22;5546;48.714;8.738;2022-12-10T15:20:45;5.20;90.00
10986;DHT22;5546;48.714;8.738;2022-12-10T15:28:31;4.90;89.70
10986;DHT22;5546;48.714;8.738;2022-12-10T15:36:31;4.90;87.80
10986;DHT22;5546;48.714;8.738;2022-12-10T15:39:03;4.80;88.50
10986;DHT22;5546;48.714;8.738;2022-12-10T15:41:39;4.50;89.40
10986;DHT22;5546;48.714;8.738;2022-12-10T15:46:57;4.40;90.20
10986;DHT22;5546;48.714;8.738;2022-12-10T15:49:23;4.40;90.00
10986;DHT22;5546;48.714;8.738;2022-12-10T15:51:50;4.80;88.70
10986;DHT22;5546;48.714;8.738;2022-12-10T15:56:55;4.90;88.80
10986;DHT22;5546;48.714;8.738;2022-12-10T15:59:21;5.00;87.60
10986;DHT22;5546;48.714;8.738;2022-12-10T16:01:47;5.20;87.80
10986;DHT22;5546;48.714;8.738;2022-12-10T16:04:12;4.80;87.80
10986;DHT22;5546;48.714;8.738;2022-12-10T16:09:04;5.00;87.60
10986;DHT22;5546;48.714;8.738;2022-12-10T16:11:31;3.70;88.30
10986;DHT22;5546;48.714;8.738;2022-12-10T16:13:57;4.30;89.40
10986;DHT22;5546;48.714;8.738;2022-12-10T16:16:23;4.20;89.40
10986;DHT22;5546;48.714;8.738;2022-12-10T16:18:49;4.10;89.90
10986;DHT22;5546;48.714;8.738;2022-12-10T16:21:15;4.40;90.00
10986;DHT22;5546;48.714;8.738;2022-12-10T16:23:40;4.30;90.00
10986;DHT22;5546;48.714;8.738;2022-12-10T16:26:18;4.20;90.00
10986;DHT22;5546;48.714;8.738;2022-12-10T16:28:44;4.60;88.80
10986;DHT22;5546;48.714;8.738;2022-12-10T16:31:14;4.60;89.30
10986;DHT22;5546;48.714;8.738;2022-12-10T16:33:40;4.70;88.60
10986;DHT22;5546;48.714;8.738;2022-12-10T16:36:06;4.90;88.00
10986;DHT22;5546;48.714;8.738;2022-12-10T16:38:31;4.50;87.40
10986;DHT22;5546;48.714;8.738;2022-12-10T16:40:58;4.50;88.00
10986;DHT22;5546;48.714;8.738;2022-12-10T16:43:26;4.40;88.80
10986;DHT22;5546;48.714;8.738;2022-12-10T16:45:53;4.10;89.90
10986;DHT22;5546;48.714;8.738;2022-12-10T16:48:19;4.40;89.10
10986;DHT22;5546;48.714;8.738;2022-12-10T16:50:46;4.40;89.50
10986;DHT22;5546;48.714;8.738;2022-12-10T16:53:26;4.30;89.40
10986;DHT22;5546;48.714;8.738;2022-12-10T16:55:52;4.10;90.00
10986;DHT22;5546;48.714;8.738;2022-12-10T17:00:48;4.10;89.50
10986;DHT22;5546;48.714;8.738;2022-12-10T17:03:19;4.40;90.30
10986;DHT22;5546;48.714;8.738;2022-12-10T17:05:58;4.40;89.60
10986;DHT22;5546;48.714;8.738;2022-12-10T17:08:25;4.40;90.00
10986;DHT22;5546;48.714;8.738;2022-12-10T17:10:52;4.80;89.00
10986;DHT22;5546;48.714;8.738;2022-12-10T17:13:37;5.00;87.50
10986;DHT22;5546;48.714;8.738;2022-12-10T17:16:04;5.00;88.20
10986;DHT22;5546;48.714;8.738;2022-12-10T17:18:30;4.80;88.10
10986;DHT22;5546;48.714;8.738;2022-12-10T17:20:56;5.10;87.30
10986;DHT22;5546;48.714;8.738;2022-12-10T17:23:22;5.30;87.80
10986;DHT22;5546;48.714;8.738;2022-12-10T17:25:48;5.00;87.00
10986;DHT22;5546;48.714;8.738;2022-12-10T17:28:19;5.00;87.60
10986;DHT22;5546;48.714;8.738;2022-12-10T17:30:45;5.10;86.60
10986;DHT22;5546;48.714;8.738;2022-12-10T17:33:20;5.10;86.90
10986;DHT22;5546;48.714;8.738;2022-12-10T17:35:47;5.10;87.30
10986;DHT22;5546;48.714;8.738;2022-12-10T17:38:24;5.00;88.20
10986;DHT22;5546;48.714;8.738;2022-12-10T17:40:50;4.90;87.40
10986;DHT22;5546;48.714;8.738;2022-12-10T17:43:16;5.30;88.10
10986;DHT22;5546;48.714;8.738;2022-12-10T17:45:42;5.00;87.80
10986;DHT22;5546;48.714;8.738;2022-12-10T17:48:12;5.00;88.40
10986;DHT22;5546;48.714;8.738;2022-12-10T17:50:38;4.80;89.10
10986;DHT22;5546;48.714;8.738;2022-12-10T17:53:05;4.80;89.10
10986;DHT22;5546;48.714;8.738;2022-12-10T17:55:35;5.10;88.70
10986;DHT22;5546;48.714;8.738;2022-12-10T17:58:01;5.10;89.10
10986;DHT22;5546;48.714;8.738;2022-12-10T18:00:30;5.30;87.90
10986;DHT22;5546;48.714;8.738;2022-12-10T18:02:56;5.40;86.70
10986;DHT22;5546;48.714;8.738;2022-12-10T18:05:22;5.50;87.30
10986;DHT22;5546;48.714;8.738;2022-12-10T18:07:47;5.70;86.60
10986;DHT22;5546;48.714;8.738;2022-12-10T18:10:19;5.50;86.70
10986;DHT22;5546;48.714;8.738;2022-12-10T18:12:46;5.20;86.90
10986;DHT22;5546;48.714;8.738;2022-12-10T18:15:12;5.00;87.80
10986;DHT22;5546;48.714;8.738;2022-12-10T18:17:38;5.00;88.40
10986;DHT22;5546;48.714;8.738;2022-12-10T18:20:05;5.30;86.50
10986;DHT22;5546;48.714;8.738;2022-12-10T18:22:33;5.30;87.20
10986;DHT22;5546;48.714;8.738;2022-12-10T18:25:00;5.30;87.20
10986;DHT22;5546;48.714;8.738;2022-12-10T18:27:25;5.30;86.30